^^

Nearby METAR Reports

 

LIRH - Frosinone (it-Af, Italy
Distance from station: SO 5km
Dati ricevuti: 18/09/2019 19:55
Non Attivo
Few Clouds
Few Clouds
 Vento da NO
Vento: NO 9 km/h
Temperatura: 25°C
P.to Rugiada: 20°C
Umidità: 74%
Barometro: 1015 hPa
Clouds: Few Clouds
Visibility: 10 km
Cloud details: Few Clouds 914 m
2019/09/18 17:55 LIRH 181755Z 31005KT 9999 FEW030 25/20 Q1015
LIRL - Latina (it-Afb), Italy
Distance from station: OSO 40km
Dati ricevuti: 18/09/2019 19:55
Non Attivo
Parz. nuvoloso
Parz. nuvoloso
 Vento da OSO
Vento: OSO 9 km/h
Temperatura: 24°C
P.to Rugiada: 22°C
Umidità: 89%
Barometro: 1015 hPa
Clouds: Parz. nuvoloso
Visibility: 10 km
Cloud details: Parz. nuvoloso 762 m
Parz. nuvoloso 1067 m
2019/09/18 17:55 LIRL 181755Z 24005KT 9999 SCT025 SCT035 24/22 Q1015
 
LIRG - Guidonia (it-Afb, Italy
Distance from station: NO 63km
Dati ricevuti: 18/09/2019 19:55
Non Attivo
Few Clouds
Few Clouds
 Vento da OSO
Vento: OSO 9 km/h
Temperatura: 24°C
P.to Rugiada: 19°C
Umidità: 74%
Barometro: 1016 hPa
Clouds: Few Clouds
Visibility: 10 km
Cloud details: Few Clouds 1067 m
2019/09/18 17:55 LIRG 181755Z 24005KT 9999 FEW035 24/19 Q1016
LIRA - Ciampino(It-Afb/, Italy
Distance from station: ONO 64km
Dati ricevuti: 19/09/2019 00:20
Molto nuvoloso
Molto nuvoloso
 Vento da S
Vento: S 6 km/h
Temperatura: 21°C
P.to Rugiada: 19°C
Umidità: 88%
Barometro: 1016 hPa
Clouds: Molto nuvoloso
Visibility: 10 km
Cloud details: Molto nuvoloso 1524 m
2019/09/18 22:20 LIRA 182220Z 19003KT 9999 BKN050 21/19 Q1016
 
LIRU - Roma/Urbe (it-Af, Italy
Distance from station: ONO 76km
Dati ricevuti: 18/09/2019 19:50
Non Attivo
Few Clouds
Few Clouds
 Vento da SO
Vento: SO 9 km/h
Temperatura: 25°C
P.to Rugiada: 20°C
Umidità: 74%
Barometro: 1015 hPa
Clouds: Few Clouds
Visibility: 10 km
Cloud details: Few Clouds 914 m
2019/09/18 17:50 LIRU 181750Z 22005KT 200V260 9999 FEW030 25/20 Q1015
LIRE - Pratica Di Mare(, Italy
Distance from station: O 77km
Dati ricevuti: 18/09/2019 23:55
Parz. nuvoloso
Parz. nuvoloso
 Vento da N
Vento: N 7 km/h
Temperatura: 22°C
P.to Rugiada: 20°C
Umidità: 88%
Barometro: 1015 hPa
Clouds: Parz. nuvoloso
Visibility: 10 km
Cloud details: Few Clouds 762 m
Parz. nuvoloso 1524 m
2019/09/18 21:55 LIRE 182155Z 01004KT 9999 FEW025 SCT050 22/20 Q1015 RETS RMK SCT VIS MIN 9999 WIND THR13 36004KT WIND THR31 /////KT BLU
 
LIQN - Rieti, Italy
Distance from station: NNO 92km
Dati ricevuti: 18/09/2019 19:50
Non Attivo
Parz. nuvoloso
Parz. nuvoloso
 Vento da SSE
Vento: SSE 9 km/h
Temperatura: 23°C
P.to Rugiada: 17°C
Umidità: 69%
Barometro: 1016 hPa
Clouds: Parz. nuvoloso
Visibility: 10 km
Cloud details: Parz. nuvoloso 1067 m
2019/09/18 17:50 LIQN 181750Z 15005KT 9999 SCT035 23/17 Q1016
LIRK - Terminillo, Italy
Distance from station: NNO 93km
Dati ricevuti: 18/09/2019 22:55
Non Attivo

 Vento da O
Vento: O 11 km/h
Temperatura: 14°C
P.to Rugiada: 11°C
Umidità: 82%
Barometro: 1025 hPa
2019/09/18 20:55 LIRK 182055Z AUTO 27006KT 180V300 //// 14/11 Q1025
 
LIRF - Roma/Fiumicino, Italy
Distance from station: O 94km
Dati ricevuti: 19/09/2019 00:20
Sereno
Sereno
 Vento da varies
Vento: varies 4 km/h
Temperatura: 22°C
P.to Rugiada: 22°C
Umidità: 100%
Barometro: 1015 hPa
Summary: Sereno
Visibility: greater than 10 km
2019/09/18 22:20 LIRF 182220Z VRB02KT CAVOK 22/22 Q1015 NOSIG
LIRM - Grazzanise (it-A, Italy
Distance from station: SE 94km
Dati ricevuti: 18/09/2019 23:55
Molto nuvoloso
Molto nuvoloso
 Vento da ESE
Vento: ESE 2 km/h
Temperatura: 24°C
P.to Rugiada: 23°C
Umidità: 94%
Barometro: 1016 hPa
Clouds: Molto nuvoloso
Visibility: 10 km
Cloud details: Molto nuvoloso 2438 m
2019/09/18 21:55 LIRM 182155Z 11001KT 9999 BKN080 24/23 Q1016
 
LIBP - Pescara, Italy
Distance from station: NE 108km
Dati ricevuti: 18/09/2019 23:50
Molto nuvoloso
Molto nuvoloso
 Vento da varies
Vento: varies 2 km/h
Temperatura: 23°C
P.to Rugiada: 21°C
Umidità: 89%
Barometro: 1016 hPa
Clouds: Molto nuvoloso
Visibility: 10 km
Cloud details: Molto nuvoloso 518 m
Molto nuvoloso 7010 m
2019/09/18 21:50 LIBP 182150Z AUTO VRB01KT 9999 BKN017/// BKN230/// 23/21 Q1016
LIRN - Napoli/Capodichino, Italy
Distance from station: SE 120km
Dati ricevuti: 19/09/2019 00:20
Sereno
Sereno
 Vento da ESE
Vento: ESE 4 km/h
Temperatura: 23°C
P.to Rugiada: 19°C
Umidità: 78%
Barometro: 1016 hPa
Summary: Sereno
Visibility: greater than 10 km
2019/09/18 22:20 LIRN 182220Z 11002KT CAVOK 23/19 Q1016 NOSIG
 
LIRV - Viterbo (it-Mil), Italy
Distance from station: NO 133km
Dati ricevuti: 18/09/2019 21:55
Non Attivo
Few Clouds
Few Clouds
 Vento da varies
Vento: varies 0 km/h
Temperatura: 21°C
P.to Rugiada: 19°C
Umidità: 88%
Barometro: 1016 hPa
Clouds: Few Clouds
Visibility: 10 km
Cloud details: Few Clouds 457 m
2019/09/18 19:55 LIRV 181955Z /////KT 9999 FEW015 21/19 Q1016
LIQC - Capri, Italy
Distance from station: SSE 145km
Dati ricevuti: 18/09/2019 23:55
Parz. nuvoloso
Parz. nuvoloso
 Vento da NE
Vento: NE 4 km/h
Temperatura: 23°C
P.to Rugiada: 20°C
Umidità: 83%
Barometro: 1017 hPa
Clouds: Parz. nuvoloso
Visibility: 10 km
Cloud details: Parz. nuvoloso 762 m
2019/09/18 21:55 LIQC 182155Z 05002KT 9999 SCT025 23/20 Q1017 RMK BKN BKN090 QUK / QUL / VIS MAR 15 KM VIS MIN 9999
 
LIRT - Trevico, Italy
Distance from station: ESE 172km
Dati ricevuti: 18/09/2019 19:55
Non Attivo
Sereno
Sereno
 Vento da O
Vento: O 15 km/h
Temperatura: 18°C
P.to Rugiada: 15°C
Umidità: 83%
Barometro: 1019 hPa
Summary: Sereno
Visibility: greater than 10 km
2019/09/18 17:55 LIRT 181755Z 28008KT CAVOK 18/15 Q1019 RMK FEW FEW180 MON INVIS VAL INVIS VIS MIN 9999
LIRZ - Perugia, Italy
Distance from station: NNO 172km
Dati ricevuti: 19/09/2019 00:13
Pioggia, Coperto
Pioggia, Coperto
 Vento da NNE
Vento: NNE 13 km/h
Temperatura: 21°C
P.to Rugiada: 20°C
Umidità: 94%
Barometro: 1017 hPa
Summary: Pioggia
Clouds: Coperto
Visibility: 10 km
Cloud details: Coperto 671 m
2019/09/18 22:13 LIRZ 182213Z AUTO 03007KT 9999 RA OVC022/// 21/20 Q1017
 
LIRI - Pontecagnano (af, Italy
Distance from station: SE 177km
Dati ricevuti: 18/09/2019 18:50
Non Attivo
Few Clouds
Few Clouds
 Vento da SSO
Vento: SSO 6 km/h
Temperatura: 24°C
P.to Rugiada: 18°C
Umidità: 69%
Barometro: 1016 hPa
Clouds: Few Clouds
Visibility: 10 km
Cloud details: Few Clouds 914 m
2019/09/18 16:50 LIRI 181650Z 21003KT 9999 FEW030 24/18 Q1016
LIBF - Foggia/Gino Lisa, Italy
Distance from station: E 183km
Dati ricevuti: 18/09/2019 17:50
Non Attivo
Few Clouds
Few Clouds
 Vento da ENE
Vento: ENE 17 km/h
Temperatura: 28°C
Indice di Calore: 29°C
P.to Rugiada: 18°C
Umidità: 55%
Barometro: 1013 hPa
Clouds: Few Clouds
Visibility: 10 km
Cloud details: Few Clouds 914 m
2019/09/18 15:50 LIBF 181550Z 07009KT 9999 FEW030TCU 28/18 Q1013
 
LIQO - Monte Argentario, Italy
Distance from station: ONO 195km
Dati ricevuti: 18/09/2019 19:55
Non Attivo
Nebbia
Nebbia
 Vento da S
Vento: S 7 km/h
Temperatura: 21°C
P.to Rugiada: 19°C
Umidità: 88%
Barometro: 1017 hPa
Summary: Nebbia
Visibility: 0 km
2019/09/18 17:55 LIQO 181755Z 17004KT 0000 FG VV/// 21/19 Q1017 RMK VAL INVIS NC VIS MIN 0000
LIBA - Amendola (it-Afb, Italy
Distance from station: E 198km
Dati ricevuti: 18/09/2019 23:55
Molto nuvoloso
Molto nuvoloso
 Vento da O
Vento: O 9 km/h
Temperatura: 23°C
P.to Rugiada: 23°C
Umidità: 100%
Barometro: 1015 hPa
Clouds: Molto nuvoloso
Visibility: 10 km
Cloud details: Few Clouds 457 m
Parz. nuvoloso 914 m
Molto nuvoloso 1829 m
2019/09/18 21:55 LIBA 182155Z 28005KT 9999 FEW015 SCT030 BKN060 23/23 Q1015 RMK BKN VIS MIN 9999 WIND THR11 28005KT WIND THR29 /////KT BLU
 
LIBN - Lecce (it-Afb), Italy
Dati ricevuti: 18/09/2019 23:55
Sereno
Sereno
 Vento da ESE
Vento: ESE 4 km/h
Temperatura: 20°C
P.to Rugiada: 19°C
Umidità: 94%
Barometro: 1015 hPa
Summary: Sereno
Visibility: greater than 10 km
2019/09/18 21:55 LIBN 182155Z 11002KT CAVOK 20/19 Q1015 RMK SKC VIS MIN 9999 WIND THR14 14002KT WIND THR32 07002KT BLU
LIPY - Ancona-Falconara, Italy
Dati ricevuti: 18/09/2019 23:50
Parz. nuvoloso
Parz. nuvoloso
 Vento da ESE
Vento: ESE 4 km/h
Temperatura: 22°C
P.to Rugiada: 19°C
Umidità: 83%
Barometro: 1016 hPa
Clouds: Parz. nuvoloso
Visibility: 10 km
Cloud details: Few Clouds 457 m
Parz. nuvoloso 1524 m
2019/09/18 21:50 LIPY 182150Z 12002KT 9999 FEW015 SCT050 22/19 Q1016
 
LICJ - Palermo-Punta Raisi, Italy
Dati ricevuti: 19/09/2019 00:20
Sereno
Sereno
 Vento da SSO
Vento: SSO 7 km/h
Temperatura: 23°C
P.to Rugiada: 21°C
Umidità: 89%
Barometro: 1016 hPa
Summary: Sereno
Visibility: greater than 10 km
2019/09/18 22:20 LICJ 182220Z 20004KT CAVOK 23/21 Q1016
LIEB - Capo Bellavista, Italy
Dati ricevuti: 18/09/2019 23:55
Sereno
Sereno
 Vento da ENE
Vento: ENE 7 km/h
Temperatura: 25°C
P.to Rugiada: 23°C
Umidità: 89%
Barometro: 1015 hPa
Summary: Sereno
Visibility: greater than 10 km
2019/09/18 21:55 LIEB 182155Z 07004KT CAVOK 25/23 Q1015 RMK SCT SCT060 QUK / QUL / VIS MAR 20 KM MON INVIS VIS MIN 9999
 
LIEC - Capo Carbonara, Italy
Dati ricevuti: 18/09/2019 23:55
Few Clouds
Few Clouds
 Vento da E
Vento: E 11 km/h
Temperatura: 25°C
P.to Rugiada: 22°C
Umidità: 83%
Barometro: 1014 hPa
Clouds: Few Clouds
Visibility: 10 km
Cloud details: Few Clouds 457 m
2019/09/18 21:55 LIEC 182155Z 08006KT 9999 FEW015 25/22 Q1014 RMK FEW QUK / QUL / VIS MAR 10 KM VIS MIN 9999
LIED - Cagliari-Decimomannu(It-A, Italy
Dati ricevuti: 18/09/2019 23:55
Sereno
Sereno
 Vento da NNO
Vento: NNO 9 km/h
Temperatura: 24°C
P.to Rugiada: 21°C
Umidità: 83%
Barometro: 1014 hPa
Summary: Sereno
Visibility: greater than 10 km
2019/09/18 21:55 LIED 182155Z 34005KT CAVOK 24/21 Q1014 RMK FEW FEW100 VIS MIN 9999 WIND THR35 35005KT WIND THR17 /////KT BLU
 
LIEE - Cagliari-Elmas(A, Italy
Dati ricevuti: 19/09/2019 00:20
Sereno
Sereno
 Vento da ONO
Vento: ONO 11 km/h
Temperatura: 23°C
P.to Rugiada: 20°C
Umidità: 83%
Barometro: 1015 hPa
Summary: Sereno
Visibility: greater than 10 km
2019/09/18 22:20 LIEE 182220Z 29006KT CAVOK 23/20 Q1015
LIEO - Olbia-Costa Smeralda, Italy
Dati ricevuti: 19/09/2019 00:20
Sereno
Sereno
 Vento da varies
Vento: varies 2 km/h
Temperatura: 21°C
P.to Rugiada: 19°C
Umidità: 88%
Barometro: 1015 hPa
Summary: Sereno
Visibility: greater than 10 km
2019/09/18 22:20 LIEO 182220Z VRB01KT CAVOK 21/19 Q1015
 
LIEA - Alghero, Italy
Dati ricevuti: 19/09/2019 00:20
Sereno
Sereno
 Vento da varies
Vento: varies 2 km/h
Temperatura: 20°C
P.to Rugiada: 20°C
Umidità: 100%
Barometro: 1015 hPa
Summary: Sereno
Visibility: greater than 10 km
2019/09/18 22:20 LIEA 182220Z VRB01KT CAVOK 20/20 Q1015
LICA - Catanzaro-Lamezia Terme, Italy
Dati ricevuti: 18/09/2019 23:50
Parz. nuvoloso
Parz. nuvoloso
 Vento da E
Vento: E 6 km/h
Temperatura: 19°C
P.to Rugiada: 18°C
Umidità: 94%
Barometro: 1016 hPa
Clouds: Parz. nuvoloso
Visibility: 10 km
Cloud details: Parz. nuvoloso 610 m
2019/09/18 21:50 LICA 182150Z 08003KT 9999 SCT020 19/18 Q1016
 
LIBQ - Cosenza-Monte Scuro, Italy
Dati ricevuti: 18/09/2019 10:55
Non Attivo
Sereno
Sereno
 Vento da NE
Vento: NE 4 km/h
Temperatura: 17°C
P.to Rugiada: 11°C
Umidità: 68%
Barometro: 1021 hPa
Summary: Sereno
Visibility: greater than 10 km
2019/09/18 08:55 LIBQ 180855Z 04002KT CAVOK 17/11 Q1021
LICR - Reggio Calabria, Italy
Dati ricevuti: 18/09/2019 23:50
Sereno
Sereno
 Vento da N
Vento: N 19 km/h
Temperatura: 24°C
P.to Rugiada: 17°C
Umidità: 65%
Barometro: 1016 hPa
Summary: Sereno
Visibility: greater than 10 km
2019/09/18 21:50 LICR 182150Z 36010KT CAVOK 24/17 Q1016
 
LIBV - Bari-Gioia Del Colle, Italy
Dati ricevuti: 18/09/2019 23:55
Mist, Few clouds
Mist, Few clouds
 Vento da SSO
Vento: SSO 9 km/h
Temperatura: 20°C
P.to Rugiada: 20°C
Umidità: 100%
Barometro: 1016 hPa
Summary: Mist
Clouds: Few Clouds
Visibility: 5 km
Cloud details: Few Clouds 213 m
2019/09/18 21:55 LIBV 182155Z 20005KT 4500 BR FEW007 20/20 Q1016 RMK SCT VIS MIN 4500 WIND THR32 21006KT WIND THR14 20005KT GRN
LIBD - Bari-Palese Macchie, Italy
Dati ricevuti: 19/09/2019 00:20
Sereno
Sereno
 Vento da varies
Vento: varies 2 km/h
Temperatura: 21°C
P.to Rugiada: 18°C
Umidità: 83%
Barometro: 1015 hPa
Summary: Sereno
Visibility: greater than 10 km
2019/09/18 22:20 LIBD 182220Z VRB01KT CAVOK 21/18 Q1015
 
LIBR - Brindisi-Casale, Italy
Dati ricevuti: 19/09/2019 00:20
Sereno
Sereno
 Vento da OSO
Vento: OSO 7 km/h
Temperatura: 23°C
P.to Rugiada: 20°C
Umidità: 83%
Barometro: 1015 hPa
Summary: Sereno
Visibility: greater than 10 km
2019/09/18 22:20 LIBR 182220Z 24004KT CAVOK 23/20 Q1015
LIRT - Trevico, Italy
Dati ricevuti: 18/09/2019 19:55
Non Attivo
Sereno
Sereno
 Vento da O
Vento: O 15 km/h
Temperatura: 18°C
P.to Rugiada: 15°C
Umidità: 83%
Barometro: 1019 hPa
Summary: Sereno
Visibility: greater than 10 km
2019/09/18 17:55 LIRT 181755Z 28008KT CAVOK 18/15 Q1019 RMK FEW FEW180 MON INVIS VAL INVIS VIS MIN 9999
 
LICB - Comiso, Italy
Dati ricevuti: 18/09/2019 23:50
Sereno
Sereno
 Vento da E
Vento: E 6 km/h
Temperatura: 21°C
P.to Rugiada: 19°C
Umidità: 88%
Barometro: 1017 hPa
Clouds: Sereno
Visibility: 6 km
2019/09/18 21:50 LICB 182150Z AUTO 10003KT 6000 NCD 21/19 Q1017
LICL - Gela, Italy
Dati ricevuti: 18/09/2019 19:55
Non Attivo
Sereno
Sereno
 Vento da OSO
Vento: OSO 9 km/h
Temperatura: 25°C
P.to Rugiada: 21°C
Umidità: 79%
Barometro: 1015 hPa
Summary: Sereno
Visibility: greater than 10 km
2019/09/18 17:55 LICL 181755Z 25005KT 200V280 CAVOK 25/21 Q1015 RMK FEW FEW120 QUK / QUL / VIS MAR 10 KM VIS MIN 9999
 
LIBN - Lecce (it-Afb), Italy
Dati ricevuti: 18/09/2019 23:55
Sereno
Sereno
 Vento da ESE
Vento: ESE 4 km/h
Temperatura: 20°C
P.to Rugiada: 19°C
Umidità: 94%
Barometro: 1015 hPa
Summary: Sereno
Visibility: greater than 10 km
2019/09/18 21:55 LIBN 182155Z 11002KT CAVOK 20/19 Q1015 RMK SKC VIS MIN 9999 WIND THR14 14002KT WIND THR32 07002KT BLU
LICJ - Palermo-Punta Raisi, Italy
Dati ricevuti: 19/09/2019 00:20
Sereno
Sereno
 Vento da SSO
Vento: SSO 7 km/h
Temperatura: 23°C
P.to Rugiada: 21°C
Umidità: 89%
Barometro: 1016 hPa
Summary: Sereno
Visibility: greater than 10 km
2019/09/18 22:20 LICJ 182220Z 20004KT CAVOK 23/21 Q1016
 
LICZ - Catania-Sigonella (nas), Italy
Dati ricevuti: 18/09/2019 23:55
Parz. nuvoloso
Parz. nuvoloso
 Vento da O
Vento: O 6 km/h
Temperatura: 22°C
P.to Rugiada: 22°C
Umidità: 100%
Barometro: 1016 hPa
Clouds: Parz. nuvoloso
Visibility: 9 km
2019/09/18 21:55 LICZ 182155Z 27003KT 9000 NSC 22/22 Q1016 RMK SKC VIS MIN 9000 WIND THR28 26002KT WIND THR10 27003KT A3002 BLU
LICC - Catania-Fontanarossa, Italy
Dati ricevuti: 19/09/2019 00:20
Few Clouds
Few Clouds
 Vento da O
Vento: O 9 km/h
Temperatura: 23°C
P.to Rugiada: 22°C
Umidità: 94%
Barometro: 1016 hPa
Clouds: Few Clouds
Visibility: 10 km
Cloud details: Few Clouds 1524 m
2019/09/18 22:20 LICC 182220Z 27005KT 9999 FEW050 23/22 Q1016
 
LICT - Trapani-Birgi (a, Italy
Dati ricevuti: 18/09/2019 22:55
Non Attivo
Few Clouds
Few Clouds
 Vento da S
Vento: S 9 km/h
Temperatura: 23°C
P.to Rugiada: 21°C
Umidità: 89%
Barometro: 1016 hPa
Clouds: Few Clouds
Visibility: 10 km
Cloud details: Few Clouds 762 m
2019/09/18 20:55 LICT 182055Z 17005KT 9999 FEW025 23/21 Q1016
LICD - Agrigento-Lampedusa, Italy
Dati ricevuti: 18/09/2019 23:50
Sereno
Sereno
 Vento da SSO
Vento: SSO 13 km/h
Temperatura: 26°C
P.to Rugiada: 23°C
Umidità: 84%
Barometro: 1016 hPa
Clouds: Sereno
Visibility: 10 km
2019/09/18 21:50 LICD 182150Z AUTO 20007KT 9999 NCD 26/23 Q1016
 
LICG - Pantelleria(It-A, Italy
Dati ricevuti: 18/09/2019 19:50
Non Attivo
Sereno
Sereno
 Vento da S
Vento: S 9 km/h
Temperatura: 25°C
P.to Rugiada: 22°C
Umidità: 83%
Barometro: 1016 hPa
Summary: Sereno
Visibility: greater than 10 km
2019/09/18 17:50 LICG 181750Z 18005KT CAVOK 25/22 Q1016
LIPX - Villafranca(Cv/M, Italy
Dati ricevuti: 19/09/2019 00:20
Temporale, Parz. nuvoloso
Temporale, Parz. nuvoloso
 Vento da ENE
Vento: ENE 11 km/h
Temperatura: 19°C
P.to Rugiada: 14°C
Umidità: 73%
Barometro: 1018 hPa
Summary: Temporale
Clouds: Parz. nuvoloso
Visibility: 8 km
Cloud details: Few Clouds 610 m
Parz. nuvoloso 1524 m
2019/09/18 22:20 LIPX 182220Z 07006KT 030V100 8000 TS FEW020CB SCT050 19/14 Q1018
 
LIPO - Brescia/Montichiari, Italy
Dati ricevuti: 18/09/2019 23:50
Molto nuvoloso
Molto nuvoloso
 Vento da E
Vento: E 13 km/h
Temperatura: 19°C
P.to Rugiada: 15°C
Umidità: 78%
Barometro: 1018 hPa
Clouds: Molto nuvoloso
Visibility: 10 km
Cloud details: Molto nuvoloso 1219 m
2019/09/18 21:50 LIPO 182150Z 09007KT 9999 BKN040 19/15 Q1018
LIPL - Ghedi (it-Afb), Italy
Dati ricevuti: 18/09/2019 23:55
Parz. nuvoloso
Parz. nuvoloso
 Vento da E
Vento: E 15 km/h
Temperatura: 20°C
P.to Rugiada: 16°C
Umidità: 78%
Barometro: 1017 hPa
Clouds: Parz. nuvoloso
Visibility: 10 km
Cloud details: Parz. nuvoloso 762 m
Parz. nuvoloso 1067 m
2019/09/18 21:55 LIPL 182155Z 10008KT 9999 SCT025 SCT035 20/16 Q1017 RMK BKN VIS MIN 9999 WIND THR31 09008KT WIND THR13 10009KT BLU
 
LIMP - Parma, Italy
Dati ricevuti: 18/09/2019 22:50
Non Attivo
Thunderstorm rain, Nuvoloso
Thunderstorm rain, Nuvoloso
 Vento da E
Vento: E 9 km/h
Temperatura: 20°C
P.to Rugiada: 20°C
Umidità: 100%
Barometro: 1017 hPa
Summary: Thunderstorm Rain
Clouds: Molto nuvoloso
Visibility: 6 km
Cloud details: Molto nuvoloso 914 m
2019/09/18 20:50 LIMP 182050Z 08005KT 6000 TSRA BKN030CB 20/20 Q1017
LIMS - Piacenza (it-Afb, Italy
Dati ricevuti: 18/09/2019 19:55
Non Attivo
Temporale, Parz. nuvoloso
Temporale, Parz. nuvoloso
 Vento da ESE
Vento: ESE 28 km/h
Temperatura: 22°C
P.to Rugiada: 20°C
Umidità: 88%
Barometro: 1014 hPa
Summary: Temporale
Clouds: Parz. nuvoloso
Visibility: 10 km
Cloud details: Parz. nuvoloso 610 m
Parz. nuvoloso 762 m
2019/09/18 17:55 LIMS 181755Z 12015KT 9999 TS SCT020CB SCT025 22/20 Q1014
 
LIPF - Ferrara (aut), Italy
Dati ricevuti: 18/09/2019 19:55
Non Attivo
Pioviggine, Parz. nuvoloso
Pioviggine, Parz. nuvoloso
 Vento da NE
Vento: NE 6 km/h
Temperatura: 19°C
P.to Rugiada: 19°C
Umidità: 100%
Barometro: 1016 hPa
Summary: Pioviggine
Clouds: Parz. nuvoloso
Visibility: 10 km
Cloud details: Parz. nuvoloso 671 m
Parz. nuvoloso 762 m
2019/09/18 17:55 LIPF 181755Z 04003KT 9999 -RA SCT022 SCT025 19/19 Q1016
LIPE - Bologna/Borgo (a, Italy
Dati ricevuti: 19/09/2019 00:20
Molto nuvoloso
Molto nuvoloso
 Vento da ENE
Vento: ENE 7 km/h
Temperatura: 21°C
P.to Rugiada: 18°C
Umidità: 83%
Barometro: 1017 hPa
Clouds: Molto nuvoloso
Visibility: 10 km
Cloud details: Few Clouds 549 m
Molto nuvoloso 610 m
2019/09/18 22:20 LIPE 182220Z 07004KT 040V100 9999 FEW018 BKN020 21/18 Q1017
 
LIPU - Padova (civ/It-A, Italy
Dati ricevuti: 18/09/2019 13:07
Non Attivo
Temporale, Nuvoloso
Temporale, Nuvoloso
 Vento da varies
Vento: varies 6 km/h
Temperatura: 22°C
P.to Rugiada: 20°C
Umidità: 88%
Barometro: 1016 hPa
Summary: Temporale
Clouds: Molto nuvoloso
Visibility: 7 km
Cloud details: Parz. nuvoloso 244 m
Molto nuvoloso 488 m
2019/09/18 11:07 LIPU 181107Z VRB03KT 7000 3000SW TS SCT008CB BKN016 22/20 Q1016
LIME - Bergamo/Orio Ser, Italy
Dati ricevuti: 19/09/2019 00:20
Thunderstorm rain, Nuvoloso
Thunderstorm rain, Nuvoloso
 Vento da ESE
Vento: ESE 15 km/h
Temperatura: 18°C
P.to Rugiada: 18°C
Umidità: 100%
Barometro: 1018 hPa
Summary: Thunderstorm Rain
Clouds: Molto nuvoloso
Visibility: 5 km
Cloud details: Few Clouds 610 m
Molto nuvoloso 762 m
2019/09/18 22:20 LIME 182220Z 11008KT 080V140 4500 TSRA FEW020CB BKN025 18/18 Q1018 NOSIG
 
LIMT - Cisa Pass, Italy
Dati ricevuti: 13/04/2018 12:55
Non Attivo
Nebbia
Nebbia
 Vento da SSO
Vento: SSO 15 km/h
Temperatura: 6°C
Temperatura del Vento: 3°C
P.to Rugiada: 4°C
Umidità: 87%
Barometro: 1013 hPa
Summary: Nebbia
Visibility: 0 km
2018/04/13 10:55 LIMT 131055Z 20008KT 0000 FG VV/// 06/04 Q1013 RMK MON INVIS VAL INVIS VIS MIN 0000
LIVC - Cimone Mountain, Italy
Dati ricevuti: 18/09/2019 23:55
Mist, Nuvoloso
Mist, Nuvoloso
 Vento da S
Vento: S 7 km/h
Temperatura: 11°C
P.to Rugiada: 8°C
Umidità: 82%
Barometro: 1025 hPa
Summary: Mist
Clouds: Molto nuvoloso
Visibility: 2 km
Cloud details: Molto nuvoloso 0 m
2019/09/18 21:55 LIVC 182155Z 19004KT 1500 BR BKN000 11/08 Q1025 RMK BKN MON INVIS VAL INVIS VIS MIN 1500
 
LIVP - Paganella Mounta, Italy
Dati ricevuti: 18/09/2019 23:55
Nebbia
Nebbia
 Vento da S
Vento: S 15 km/h
Temperatura: 8°C
Temperatura del Vento: 5°C
P.to Rugiada: 6°C
Umidità: 87%
Barometro: 1022 hPa
Summary: Nebbia
Visibility: 1 km
2019/09/18 21:55 LIVP 182155Z 19008KT 0600 FG VV/// 08/06 Q1022 RMK MON INVIS VAL INVIS VIS MIN 0600
LIML - Milano/Linate, Italy
Dati ricevuti: 01/09/2019 05:20
Non Attivo
Parz. nuvoloso
Parz. nuvoloso
 Vento da OSO
Vento: OSO 7 km/h
Temperatura: 24°C
P.to Rugiada: 19°C
Umidità: 74%
Barometro: 1012 hPa
Clouds: Parz. nuvoloso
Visibility: 10 km
Cloud details: Few Clouds 762 m
Parz. nuvoloso 914 m
2019/09/01 03:20 LIML 010320Z 24004KT 9999 FEW025CB SCT030 24/19 Q1012 NOSIG
 
LIPS - Istrana (it-Afb), Italy
Dati ricevuti: 18/09/2019 23:55
Molto nuvoloso
Molto nuvoloso
 Vento da varies
Vento: varies 0 km/h
Temperatura: 18°C
P.to Rugiada: 12°C
Umidità: 68%
Barometro: 1018 hPa
Clouds: Molto nuvoloso
Visibility: 10 km
Cloud details: Molto nuvoloso 1219 m
2019/09/18 21:55 LIPS 182155Z /////KT 9999 BKN040 18/12 Q1018 RMK BKN VIS MIN 9999 WIND THR26 03009KT WIND THR08 06008KT BLU
LIPH - Treviso(Civ/It-A, Italy
Dati ricevuti: 19/09/2019 00:20
Coperto
Coperto
 Vento da NE
Vento: NE 11 km/h
Temperatura: 18°C
P.to Rugiada: 9°C
Umidità: 56%
Barometro: 1018 hPa
Clouds: Coperto
Visibility: 10 km
Cloud details: Coperto 1920 m
2019/09/18 22:20 LIPH 182220Z AUTO 04006KT 9999 OVC063/// 18/09 Q1018
 
LIPZ - Venezia/Tessera, Italy
Dati ricevuti: 19/09/2019 00:20
Molto nuvoloso
Molto nuvoloso
 Vento da NE
Vento: NE 19 km/h
Temperatura: 17°C
P.to Rugiada: 10°C
Umidità: 64%
Barometro: 1018 hPa
Clouds: Molto nuvoloso
Visibility: 10 km
Cloud details: Molto nuvoloso 1341 m
2019/09/18 22:20 LIPZ 182220Z 04010KT 9999 BKN044 17/10 Q1018 NOSIG
LIQW - Sarzana/Luni, Italy
Dati ricevuti: 18/09/2019 22:55
Non Attivo
Few Clouds
Few Clouds
 Vento da varies
Vento: varies 0 km/h
Temperatura: 21°C
P.to Rugiada: 20°C
Umidità: 94%
Barometro: 1015 hPa
Clouds: Few Clouds
Visibility: 10 km
Cloud details: Few Clouds 914 m
2019/09/18 20:55 LIQW 182055Z /////KT 9999 FEW030 21/20 Q1015
 
LIVR - Rolle Pass, Italy
Dati ricevuti: 18/09/2019 22:55
Non Attivo
Few Clouds
Few Clouds
 Vento da ESE
Vento: ESE 7 km/h
Temperatura: 9°C
Temperatura del Vento: 8°C
P.to Rugiada: 7°C
Umidità: 87%
Barometro: 1023 hPa
Clouds: Few Clouds
Visibility: 10 km
Cloud details: Few Clouds 914 m
2019/09/18 20:55 LIVR 182055Z 12004KT 9999 FEW030 09/07 Q1023 RERA RMK BKN SCT070 MON CLD SCT VIS MIN 9999
LIPK - Forli (civ/It-Af, Italy
Dati ricevuti: 18/09/2019 17:50
Non Attivo
Few Clouds
Few Clouds
 Vento da E
Vento: E 15 km/h
Temperatura: 24°C
P.to Rugiada: 18°C
Umidità: 69%
Barometro: 1015 hPa
Clouds: Few Clouds
Visibility: 10 km
Cloud details: Few Clouds 1219 m
2019/09/18 15:50 LIPK 181550Z 08008KT 9999 FEW040 24/18 Q1015
 
LIMV - Giovi Pass, Italy
Dati ricevuti: 18/09/2019 10:55
Non Attivo
Few Clouds
Few Clouds
 Vento da varies
Vento: varies 0 km/h
Temperatura: 21°C
P.to Rugiada: 17°C
Umidità: 78%
Barometro: 1017 hPa
Clouds: Few Clouds
Visibility: 10 km
Cloud details: Few Clouds 366 m
2019/09/18 08:55 LIMV 180855Z /////KT 9999 FEW012 21/17 Q1017
LIPB - Bolzano(Civ/It-A, Italy
Dati ricevuti: 18/09/2019 22:50
Non Attivo
Molto nuvoloso
Molto nuvoloso
 Vento da varies
Vento: varies 6 km/h
Temperatura: 22°C
P.to Rugiada: 14°C
Umidità: 61%
Barometro: 1016 hPa
Clouds: Molto nuvoloso
Visibility: 10 km
Cloud details: Molto nuvoloso 1829 m
2019/09/18 20:50 LIPB 182050Z VRB03KT 9999 BKN060 22/14 Q1016
 
LIVD - Bolzano-Dobbiaco, Italy
Dati ricevuti: 18/09/2019 19:55
Non Attivo
Few Clouds
Few Clouds
 Vento da E
Vento: E 17 km/h
Temperatura: 15°C
P.to Rugiada: 11°C
Umidità: 77%
Barometro: 1020 hPa
Clouds: Few Clouds
Visibility: 10 km
Cloud details: Few Clouds 914 m
2019/09/18 17:55 LIVD 181755Z 09009KT 9999 FEW030 15/11 Q1020 RMK FEW VIS MIN 9999
LIVE - Bolzano-Passo Resia, Italy
Dati ricevuti: 18/09/2019 23:55
Sereno
Sereno
 Vento da NNE
Vento: NNE 15 km/h, Raffica: 39 km/h
Temperatura: 11°C
P.to Rugiada: 10°C
Umidità: 94%
Barometro: 1022 hPa
Summary: Sereno
Visibility: greater than 10 km
2019/09/18 21:55 LIVE 182155Z 02008G21KT CAVOK 11/10 Q1022 RMK SKC VIS MIN 9999
 
LIMH - Aosta-Pian Rosa (mtn T, Italy
Dati ricevuti: 18/09/2019 23:55
Nebbia
Nebbia
 Vento da NE
Vento: NE 11 km/h
Temperatura: 2°C
Temperatura del Vento: -1°C
P.to Rugiada: 2°C
Umidità: 100%
Barometro: 1029 hPa
Summary: Nebbia
Visibility: 1 km
2019/09/18 21:55 LIMH 182155Z 05006KT 0800 FG VV/// 02/02 Q1029 RMK MON INVIS VAL INVIS VIS MIN 0800
LIMZ - Cuneo/Levaldigi, Italy
Dati ricevuti: 18/09/2019 20:50
Non Attivo
Parz. nuvoloso
Parz. nuvoloso
 Vento da SE
Vento: SE 4 km/h
Temperatura: 20°C
P.to Rugiada: 18°C
Umidità: 88%
Barometro: 1016 hPa
Clouds: Parz. nuvoloso
Visibility: 10 km
Cloud details: Parz. nuvoloso 1524 m
2019/09/18 18:50 LIMZ 181850Z 13002KT 9999 SCT050 20/18 Q1016
 
LIMK - Torino-Bric Della Croce, Italy
Dati ricevuti: 18/09/2019 22:55
Non Attivo
Parz. nuvoloso
Parz. nuvoloso
 Vento da NE
Vento: NE 9 km/h
Temperatura: 19°C
P.to Rugiada: 19°C
Umidità: 100%
Barometro: 1017 hPa
Clouds: Parz. nuvoloso
Visibility: 10 km
Cloud details: Parz. nuvoloso 610 m
Parz. nuvoloso 914 m
2019/09/18 20:55 LIMK 182055Z 04005KT 9999 SCT020 SCT030 19/19 Q1017 RMK OVC VAL FOSCHIA VIS MIN 9999
LIMN - Novara-Cameri (it-Afb), Italy
Dati ricevuti: 18/09/2019 19:55
Non Attivo
Sereno
Sereno
 Vento da ESE
Vento: ESE 4 km/h
Temperatura: 24°C
P.to Rugiada: 17°C
Umidità: 65%
Barometro: 1015 hPa
Summary: Sereno
Visibility: greater than 10 km
2019/09/18 17:55 LIMN 181755Z 12002KT CAVOK 24/17 Q1015 RMK FEW FEW070 VIS MIN 9999 BLU
 
LIPA - Pordenone-Aviano (it/Us-Af, Italy
Dati ricevuti: 18/09/2019 21:55
Non Attivo
Molto nuvoloso
Molto nuvoloso
 Vento da NNE
Vento: NNE 9 km/h
Temperatura: 16°C
P.to Rugiada: 12°C
Umidità: 77%
Barometro: 1019 hPa
Clouds: Molto nuvoloso
Visibility: 10 km
Cloud details: Few Clouds 1372 m
Molto nuvoloso 1829 m
2019/09/18 19:55 LIPA 181955Z 02005KT 9999 FEW045 BKN060 16/12 Q1019 RMK BKN VIS MIN 9999 WIND THR05 /////KT WIND THR23 /////KT A3010 BLU
LIPI - Udine-Rivolto (it-Afb), Italy
Dati ricevuti: 18/09/2019 15:55
Non Attivo
Parz. nuvoloso
Parz. nuvoloso
 Vento da ENE
Vento: ENE 24 km/h
Temperatura: 22°C
P.to Rugiada: 11°C
Umidità: 50%
Barometro: 1016 hPa
Clouds: Parz. nuvoloso
Visibility: 10 km
Cloud details: Few Clouds 1524 m
Parz. nuvoloso 2134 m
2019/09/18 13:55 LIPI 181355Z 06013KT 9999 FEW050 SCT070 22/11 Q1016 14 RMK SCT VIS MIN 9999 WIND THR06 09014KT WIND THR24 09010KT BLU
 
LIVO - Udine-Tarvisio, Italy
Dati ricevuti: 18/09/2019 19:55
Non Attivo
Molto nuvoloso
Molto nuvoloso
 Vento da E
Vento: E 9 km/h
Temperatura: 11°C
P.to Rugiada: 8°C
Umidità: 82%
Barometro: 1021 hPa
Clouds: Molto nuvoloso
Visibility: 10 km
Cloud details: Molto nuvoloso 610 m
2019/09/18 17:55 LIVO 181755Z 10005KT 9999 BKN020 11/08 Q1021 RMK BKN VIS MIN 9999
LIPQ - Trieste-Ronchi Dei Legionari, Italy
Dati ricevuti: 19/09/2019 00:20
Molto nuvoloso
Molto nuvoloso
 Vento da ENE
Vento: ENE 13 km/h
Temperatura: 18°C
P.to Rugiada: 7°C
Umidità: 49%
Barometro: 1019 hPa
Clouds: Molto nuvoloso
Visibility: 10 km
Cloud details: Few Clouds 1646 m
Molto nuvoloso 2408 m
2019/09/18 22:20 LIPQ 182220Z AUTO 07007KT 040V120 9999 FEW054/// BKN079/// 18/07 Q1019
 
LIVT - Trieste, Italy
Dati ricevuti: 18/09/2019 23:55
Sereno
Sereno
 Vento da NE
Vento: NE 35 km/h, Raffica: 69 km/h
Temperatura: 16°C
P.to Rugiada: 8°C
Umidità: 59%
Barometro: 1017 hPa
Summary: Sereno
Visibility: greater than 10 km
2019/09/18 21:55 LIVT 182155Z 04019G37KT CAVOK 16/08 Q1017 RMK SCT SCT070 QUK / QUL / VIS MAR 20 KM VIS MIN 9999
LIRQ - Firenze/Peretola, Italy
Dati ricevuti: 19/09/2019 00:20
Parz. nuvoloso
Parz. nuvoloso
 Vento da E
Vento: E 6 km/h
Temperatura: 21°C
P.to Rugiada: 17°C
Umidità: 78%
Barometro: 1015 hPa
Clouds: Parz. nuvoloso
Visibility: 10 km
Cloud details: Parz. nuvoloso 1067 m
2019/09/18 22:20 LIRQ 182220Z 09003KT 9999 SCT035 21/17 Q1015
 
LIPK - Forli (civ/It-Af, Italy
Dati ricevuti: 18/09/2019 17:50
Non Attivo
Few Clouds
Few Clouds
 Vento da E
Vento: E 15 km/h
Temperatura: 24°C
P.to Rugiada: 18°C
Umidità: 69%
Barometro: 1015 hPa
Clouds: Few Clouds
Visibility: 10 km
Cloud details: Few Clouds 1219 m
2019/09/18 15:50 LIPK 181550Z 08008KT 9999 FEW040 24/18 Q1015
LIRS - Grosseto (it-Afb, Italy
Dati ricevuti: 18/09/2019 23:55
Parz. nuvoloso
Parz. nuvoloso
 Vento da ENE
Vento: ENE 6 km/h
Temperatura: 22°C
P.to Rugiada: 20°C
Umidità: 88%
Barometro: 1015 hPa
Clouds: Parz. nuvoloso
Visibility: 8 km
Cloud details: Few Clouds 610 m
Parz. nuvoloso 1219 m
2019/09/18 21:55 LIRS 182155Z 07003KT 8000 FEW020 SCT040 22/20 Q1015
 
LIRP - Pisa (civ/It-Afb, Italy
Dati ricevuti: 19/09/2019 00:15
Parz. nuvoloso
Parz. nuvoloso
 Vento da SO
Vento: SO 6 km/h
Temperatura: 20°C
P.to Rugiada: 19°C
Umidità: 94%
Barometro: 1015 hPa
Clouds: Parz. nuvoloso
Visibility: 10 km
Cloud details: Parz. nuvoloso 1524 m
2019/09/18 22:15 LIRP 182215Z 23003KT 9999 SCT050 20/19 Q1015
LIVF - Frontone, Italy
Dati ricevuti: 18/09/2019 10:55
Non Attivo
Sereno
Sereno
 Vento da ENE
Vento: ENE 7 km/h
Temperatura: 23°C
P.to Rugiada: 14°C
Umidità: 57%
Barometro: 1016 hPa
Summary: Sereno
Visibility: greater than 10 km
2019/09/18 08:55 LIVF 180855Z 06004KT CAVOK 23/14 Q1016
 
LIPC - Cervia (it-Afb), Italy
Dati ricevuti: 18/09/2019 23:55
Molto nuvoloso
Molto nuvoloso
 Vento da E
Vento: E 20 km/h
Temperatura: 21°C
P.to Rugiada: 20°C
Umidità: 94%
Barometro: 1016 hPa
Clouds: Molto nuvoloso
Visibility: 10 km
Cloud details: Few Clouds 762 m
Molto nuvoloso 1829 m
2019/09/18 21:55 LIPC 182155Z 09011KT 9999 FEW025 BKN060 21/20 Q1016
LIPR - Rimini (civ/It-A, Italy
Dati ricevuti: 19/09/2019 00:20
Molto nuvoloso
Molto nuvoloso
 Vento da ENE
Vento: ENE 15 km/h
Temperatura: 22°C
P.to Rugiada: 18°C
Umidità: 78%
Barometro: 1016 hPa
Clouds: Molto nuvoloso
Visibility: 10 km
Cloud details: Few Clouds 427 m
Parz. nuvoloso 640 m
Molto nuvoloso 732 m
2019/09/18 22:20 LIPR 182220Z AUTO 07008KT 9999 FEW014/// SCT021/// BKN024/// 22/18 Q1016
 
LIRX - Monte Calamita, Italy
Dati ricevuti: 18/09/2019 19:55
Non Attivo
Nebbia
Nebbia
 Vento da calm
Vento: Calma
Temperatura: 21°C
P.to Rugiada: 20°C
Umidità: 94%
Barometro: 1015 hPa
Summary: Nebbia
Visibility: 0 km
2019/09/18 17:55 LIRX 181755Z 00000KT 0100 FG VV/// 21/20 Q1015 RMK VIS MIN 0100 VIS MAR 0100 M
LIVM - Punta Marina/Rav, Italy
Dati ricevuti: 18/09/2019 23:55

 Vento da E
Vento: E 24 km/h
Temperatura: 21°C
P.to Rugiada: 19°C
Umidità: 88%
Barometro: 1016 hPa
2019/09/18 21:55 LIVM 182155Z AUTO 09013KT //// 21/19 Q1016